Time;durP1;ratioP1;P1;durP2;ratioP2;P2;SDS_P1;SDS_P2;PMS_P1;PMS_P2;Temp;Humidity;BMP_temperature;BMP_pressure;BME280_temperature;BME280_humidity;BME280_pressure;Samples;Min_cycle;Max_cycle;Signal;HPM_P1;HPM_P2
2023/12/07 00:00:28;;;;;;;17.40;8.10;;;;;;;8.47;31.29;101471.80;105478;1256;59869;-62
2023/12/07 00:02:56;;;;;;;17.20;8.20;;;;;;;8.39;31.36;101475.70;105287;1256;59648;-63
2023/12/07 00:05:23;;;;;;;21.10;9.20;;;;;;;8.30;31.38;101476.50;105363;1256;62916;-62
2023/12/07 00:07:51;;;;;;;21.00;8.80;;;;;;;8.27;31.49;101479.33;105322;1257;62565;-62
2023/12/07 00:10:19;;;;;;;23.60;9.00;;;;;;;8.25;31.54;101479.95;105316;1258;63738;-61
2023/12/07 00:12:47;;;;;;;21.90;9.60;;;;;;;8.21;31.62;101484.66;105321;1257;59762;-60
2023/12/07 00:15:18;;;;;;;21.30;8.50;;;;;;;8.17;31.62;101484.52;106455;1257;60595;-61
2023/12/07 00:17:46;;;;;;;18.20;7.80;;;;;;;8.12;31.61;101488.64;105352;1254;64110;-62
2023/12/07 00:20:13;;;;;;;16.90;7.30;;;;;;;8.06;31.65;101490.52;105273;1261;60124;-62
2023/12/07 00:22:41;;;;;;;20.80;8.60;;;;;;;7.99;31.73;101487.92;105292;1266;62529;-62
2023/12/07 00:25:09;;;;;;;17.20;7.40;;;;;;;7.99;31.79;101490.54;105859;1257;59747;-60
2023/12/07 00:27:37;;;;;;;18.40;8.70;;;;;;;8.00;31.78;101494.84;106940;1256;59632;-60
2023/12/07 00:30:05;;;;;;;20.00;6.80;;;;;;;7.99;31.80;101490.70;105307;1258;64073;-61
2023/12/07 00:32:33;;;;;;;19.30;7.70;;;;;;;7.96;31.66;101490.84;106078;1251;61338;-61
2023/12/07 00:35:00;;;;;;;23.10;7.90;;;;;;;7.89;31.65;101487.54;105372;1257;63829;-62
2023/12/07 00:37:28;;;;;;;18.90;6.70;;;;;;;7.94;31.64;101487.67;105096;1254;59694;-63
2023/12/07 00:39:56;;;;;;;14.20;5.60;;;;;;;8.02;31.57;101488.98;105191;1268;59698;-62
2023/12/07 00:42:24;;;;;;;18.90;7.70;;;;;;;8.13;31.60;101484.04;105366;1257;62873;-63
2023/12/07 00:44:52;;;;;;;18.70;5.80;;;;;;;8.20;31.44;101480.70;105337;1254;60361;-63
2023/12/07 00:47:19;;;;;;;20.60;9.50;;;;;;;8.23;31.48;101483.20;105367;1257;62452;-63
2023/12/07 00:49:47;;;;;;;19.70;8.40;;;;;;;8.26;31.45;101485.13;105342;1257;59634;-62
2023/12/07 00:52:15;;;;;;;17.60;6.80;;;;;;;8.27;31.44;101484.73;105604;1251;59599;-59
2023/12/07 00:54:43;;;;;;;22.40;7.20;;;;;;;8.25;31.49;101488.11;105784;1254;64192;-63
2023/12/07 00:57:10;;;;;;;20.00;10.00;;;;;;;8.21;31.36;101487.83;105377;1266;61863;-64
2023/12/07 00:59:38;;;;;;;25.70;10.70;;;;;;;8.11;31.23;101485.89;105356;1255;64189;-64
2023/12/07 01:02:06;;;;;;;20.80;8.70;;;;;;;8.01;31.32;101486.23;105272;1259;59765;-65
2023/12/07 01:04:33;;;;;;;15.80;6.40;;;;;;;7.92;31.40;101485.12;105375;1257;59735;-64
2023/12/07 01:07:01;;;;;;;17.10;7.80;;;;;;;7.83;31.50;101484.04;105322;1254;64242;-63
2023/12/07 01:09:29;;;;;;;19.40;7.70;;;;;;;7.76;31.63;101478.05;106137;1254;60116;-65
2023/12/07 01:11:58;;;;;;;17.30;6.90;;;;;;;7.68;31.79;101478.33;105469;1256;64129;-64
2023/12/07 01:14:25;;;;;;;20.70;7.80;;;;;;;7.60;31.92;101475.90;105233;1251;60521;-64
2023/12/07 01:16:53;;;;;;;15.60;5.20;;;;;;;7.60;31.99;101474.14;105322;1254;60509;-64
2023/12/07 01:19:21;;;;;;;16.40;6.40;;;;;;;7.69;31.84;101473.17;105417;1255;65185;-63
2023/12/07 01:21:49;;;;;;;23.60;7.20;;;;;;;7.80;31.86;101472.77;105526;1256;60450;-63
2023/12/07 01:24:16;;;;;;;16.90;6.10;;;;;;;7.93;31.89;101471.80;105363;1259;64262;-63
2023/12/07 01:26:44;;;;;;;15.70;6.40;;;;;;;8.02;31.90;101467.68;105494;1258;60553;-62
2023/12/07 01:29:13;;;;;;;13.40;5.10;;;;;;;8.06;31.88;101468.83;105289;1254;60545;-62
2023/12/07 01:31:41;;;;;;;14.60;7.10;;;;;;;8.12;31.69;101475.70;106763;1257;63776;-63
2023/12/07 01:34:09;;;;;;;19.80;7.30;;;;;;;8.12;31.64;101472.73;105370;1257;60597;-62
2023/12/07 01:36:37;;;;;;;20.10;6.90;;;;;;;8.12;31.49;101468.39;105999;1258;62462;-64
2023/12/07 01:39:05;;;;;;;17.20;6.00;;;;;;;8.08;31.46;101467.02;105488;1255;60893;-63
2023/12/07 01:41:33;;;;;;;18.10;8.40;;;;;;;8.04;31.45;101464.26;106041;1256;60604;-62
2023/12/07 01:44:00;;;;;;;15.60;6.70;;;;;;;8.00;31.54;101464.82;105290;1256;63639;-63
2023/12/07 01:46:28;;;;;;;15.80;7.40;;;;;;;7.94;31.51;101464.73;105325;1254;61352;-62
2023/12/07 01:48:56;;;;;;;17.80;7.60;;;;;;;7.88;31.55;101461.77;105172;1257;62456;-62
2023/12/07 01:51:24;;;;;;;12.20;5.60;;;;;;;7.86;31.65;101457.48;105541;1258;60567;-62
2023/12/07 01:53:54;;;;;;;16.00;6.40;;;;;;;7.81;31.62;101454.77;105170;1259;60559;-62
2023/12/07 01:56:23;;;;;;;16.70;5.90;;;;;;;7.74;31.64;101454.57;105299;1253;65002;-63
2023/12/07 01:58:51;;;;;;;18.20;8.40;;;;;;;7.72;31.69;101455.23;105547;1257;61348;-63
2023/12/07 02:01:19;;;;;;;19.40;7.30;;;;;;;7.69;31.70;101455.06;105189;1255;63809;-63
2023/12/07 02:03:48;;;;;;;19.10;7.20;;;;;;;7.64;31.76;101458.23;105144;1259;60553;-63
2023/12/07 02:06:15;;;;;;;18.10;9.30;;;;;;;7.61;31.82;101460.80;105699;1251;60524;-63
2023/12/07 02:08:44;;;;;;;21.10;7.30;;;;;;;7.58;31.78;101465.52;105297;1259;65409;-63
2023/12/07 02:11:12;;;;;;;21.00;6.90;;;;;;;7.54;31.75;101465.74;105678;1251;60408;-62
2023/12/07 02:13:40;;;;;;;18.60;6.80;;;;;;;7.48;31.87;101463.94;105311;1257;63672;-62
2023/12/07 02:16:14;;;;;;;19.40;7.20;;;;;;;7.46;31.93;101461.42;106047;1252;60677;-61
2023/12/07 02:18:45;;;;;;;19.30;5.60;;;;;;;7.50;31.83;101461.39;105684;1254;60354;-59
2023/12/07 02:21:33;;;;;;;17.20;6.20;;;;;;;7.55;31.69;101456.98;105807;1254;63737;-61
2023/12/07 02:24:01;;;;;;;18.10;8.00;;;;;;;7.57;31.64;101455.42;105315;1257;60463;-61
2023/12/07 02:26:56;;;;;;;16.10;6.70;;;;;;;7.59;31.58;101452.89;105366;1255;63758;-57
2023/12/07 02:29:24;;;;;;;19.90;7.60;;;;;;;7.57;31.67;101456.48;105495;1255;61205;-60
2023/12/07 02:31:52;;;;;;;18.30;7.20;;;;;;;7.56;31.61;101454.99;105363;1257;60515;-61
2023/12/07 02:34:20;;;;;;;19.40;6.80;;;;;;;7.50;31.57;101451.27;105213;1254;63793;-59
2023/12/07 02:36:48;;;;;;;14.30;7.10;;;;;;;7.43;31.51;101452.30;105640;1254;62122;-61
2023/12/07 02:39:15;;;;;;;15.00;5.70;;;;;;;7.39;31.53;101454.79;105677;1254;63781;-62
2023/12/07 02:41:43;;;;;;;16.20;6.20;;;;;;;7.38;31.57;101459.52;106445;1258;60466;-59
2023/12/07 02:44:11;;;;;;;17.40;7.40;;;;;;;7.36;31.55;101455.99;105066;1251;60532;-59
2023/12/07 02:46:38;;;;;;;15.60;5.90;;;;;;;7.32;31.68;101459.50;105310;1254;64992;-61
2023/12/07 02:49:06;;;;;;;16.30;6.70;;;;;;;7.30;31.61;101462.05;107480;1254;61390;-61
2023/12/07 02:51:34;;;;;;;17.60;6.90;;;;;;;7.28;31.66;101462.52;105439;1254;62507;-61
2023/12/07 02:54:02;;;;;;;18.20;7.00;;;;;;;7.26;31.59;101465.87;106053;1256;60658;-61
2023/12/07 02:56:29;;;;;;;18.60;6.90;;;;;;;7.25;31.56;101465.04;106114;1254;60923;-61
2023/12/07 02:58:57;;;;;;;17.00;7.60;;;;;;;7.20;31.57;101466.18;105395;1254;63708;-62
2023/12/07 03:01:25;;;;;;;13.90;7.10;;;;;;;7.18;31.64;101466.45;105557;1257;61354;-62
2023/12/07 03:03:53;;;;;;;17.20;7.10;;;;;;;7.17;31.66;101466.67;105395;1258;62496;-62
2023/12/07 03:06:21;;;;;;;19.70;7.50;;;;;;;7.19;31.79;101462.93;105378;1257;60796;-61
2023/12/07 03:08:49;;;;;;;31.90;8.20;;;;;;;7.27;31.69;101462.51;105535;1254;60511;-62
2023/12/07 03:11:17;;;;;;;15.70;7.00;;;;;;;7.35;31.66;101463.16;105701;1251;64917;-62
2023/12/07 03:13:44;;;;;;;15.00;6.20;;;;;;;7.40;31.62;101465.22;105396;1254;61884;-60
2023/12/07 03:16:12;;;;;;;15.30;5.70;;;;;;;7.39;31.65;101464.89;105277;1256;62445;-61
2023/12/07 03:18:39;;;;;;;19.80;7.80;;;;;;;7.40;31.67;101467.61;105302;1252;60584;-64
2023/12/07 03:21:07;;;;;;;20.60;7.40;;;;;;;7.44;31.58;101466.90;105928;1251;60611;-61
2023/12/07 03:23:36;;;;;;;19.10;6.30;;;;;;;7.42;31.52;101465.11;105310;1258;65575;-60
2023/12/07 03:26:03;;;;;;;17.80;7.10;;;;;;;7.40;31.41;101474.98;106054;1257;61096;-62
2023/12/07 03:28:31;;;;;;;16.50;6.50;;;;;;;7.33;31.46;101477.42;105445;1254;63685;-62
2023/12/07 03:30:59;;;;;;;18.30;6.60;;;;;;;7.30;31.51;101475.63;105382;1254;60482;-62
2023/12/07 03:33:27;;;;;;;16.60;6.10;;;;;;;7.25;31.47;101477.47;105492;1253;60643;-63
2023/12/07 03:35:54;;;;;;;16.30;6.60;;;;;;;7.17;31.50;101480.98;105346;1254;63632;-63
2023/12/07 03:38:22;;;;;;;17.00;7.20;;;;;;;7.10;31.49;101484.98;105403;1257;61345;-59
2023/12/07 03:40:50;;;;;;;17.90;6.00;;;;;;;7.08;31.59;101486.46;105338;1254;62454;-59
2023/12/07 03:43:19;;;;;;;13.10;5.90;;;;;;;7.07;31.58;101489.29;105614;1254;60562;-60
2023/12/07 03:45:47;;;;;;;14.10;5.40;;;;;;;7.06;31.65;101490.38;105636;1253;60473;-61
2023/12/07 03:48:15;;;;;;;21.80;6.50;;;;;;;7.06;31.57;101489.71;106400;1254;63671;-62
2023/12/07 03:50:43;;;;;;;18.80;6.30;;;;;;;7.03;31.56;101492.63;105321;1253;61275;-62
2023/12/07 03:53:12;;;;;;;17.70;6.60;;;;;;;7.01;31.64;101492.20;105364;1254;64314;-61
2023/12/07 03:55:40;;;;;;;11.40;4.90;;;;;;;7.01;31.68;101493.08;106691;1254;60399;-61
2023/12/07 03:58:07;;;;;;;12.60;4.40;;;;;;;7.09;31.75;101490.46;105373;1256;60418;-61
2023/12/07 04:00:35;;;;;;;10.60;3.00;;;;;;;7.23;31.60;101487.14;105371;1254;63752;-60
2023/12/07 04:03:03;;;;;;;17.10;4.90;;;;;;;7.35;31.53;101487.79;105283;1254;60444;-61
2023/12/07 04:05:31;;;;;;;16.80;7.20;;;;;;;7.44;31.35;101481.43;106258;1254;62498;-60
2023/12/07 04:07:59;;;;;;;14.30;5.40;;;;;;;7.54;31.39;101481.81;105448;1251;60473;-62
2023/12/07 04:10:27;;;;;;;14.80;6.50;;;;;;;7.68;31.20;101478.84;106118;1254;60373;-59
2023/12/07 04:12:55;;;;;;;10.10;2.80;;;;;;;7.77;31.14;101474.33;105183;1260;65389;-61
2023/12/07 04:15:22;;;;;;;14.20;5.60;;;;;;;7.88;30.96;101469.24;105202;1258;60521;-61
2023/12/07 04:17:50;;;;;;;16.40;7.20;;;;;;;7.96;30.77;101470.94;105478;1254;62674;-61
2023/12/07 04:20:18;;;;;;;18.90;7.50;;;;;;;8.00;30.64;101472.85;107150;1253;60669;-61
2023/12/07 04:22:46;;;;;;;18.20;7.00;;;;;;;7.89;30.82;101473.39;105367;1254;60388;-60
2023/12/07 04:25:14;;;;;;;20.70;5.50;;;;;;;7.81;30.74;101468.05;105397;1254;64905;-59
2023/12/07 04:27:41;;;;;;;17.90;6.80;;;;;;;7.72;30.67;101469.02;105421;1256;60553;-58
2023/12/07 04:30:12;;;;;;;15.40;6.20;;;;;;;7.58;30.78;101472.52;105999;1253;63913;-60
2023/12/07 04:32:40;;;;;;;15.50;6.50;;;;;;;7.48;30.93;101470.75;105756;1254;60681;-61
2023/12/07 04:35:08;;;;;;;17.00;6.10;;;;;;;7.40;31.01;101471.64;105759;1257;61808;-61
2023/12/07 04:37:36;;;;;;;16.90;7.30;;;;;;;7.33;31.00;101471.15;105849;1255;63665;-61
2023/12/07 04:40:05;;;;;;;15.60;6.00;;;;;;;7.23;31.05;101467.41;105762;1257;71460;-61
2023/12/07 04:42:33;;;;;;;17.40;6.20;;;;;;;7.16;31.09;101467.25;105495;1257;64276;-61
2023/12/07 04:45:02;;;;;;;16.10;5.80;;;;;;;7.11;31.17;101465.58;105368;1257;60556;-61
2023/12/07 04:47:30;;;;;;;17.70;6.50;;;;;;;7.04;31.15;101463.95;105316;1254;60671;-61
2023/12/07 04:49:59;;;;;;;15.20;5.10;;;;;;;6.96;31.21;101464.22;105211;1253;63957;-62
2023/12/07 04:52:27;;;;;;;17.80;8.10;;;;;;;6.89;31.34;101465.90;105605;1257;61349;-61
2023/12/07 04:54:55;;;;;;;18.00;6.90;;;;;;;6.82;31.39;101469.56;105694;1257;62578;-62
2023/12/07 04:57:23;;;;;;;16.70;6.80;;;;;;;6.78;31.33;101471.13;105465;1256;60546;-61
2023/12/07 04:59:51;;;;;;;20.00;8.00;;;;;;;6.72;31.41;101473.67;105307;1254;60909;-58
2023/12/07 05:02:19;;;;;;;14.50;5.70;;;;;;;6.74;31.41;101471.52;105401;1254;64916;-61
2023/12/07 05:04:47;;;;;;;16.70;5.70;;;;;;;6.80;31.46;101473.33;106175;1252;61862;-61
2023/12/07 05:07:15;;;;;;;12.20;4.80;;;;;;;6.88;31.42;101472.58;105320;1253;63731;-63
2023/12/07 05:09:43;;;;;;;15.50;5.00;;;;;;;6.99;31.32;101472.59;105597;1254;60397;-61
2023/12/07 05:12:10;;;;;;;15.60;5.60;;;;;;;7.11;31.27;101474.12;105340;1254;60550;-63
2023/12/07 05:14:38;;;;;;;20.30;5.70;;;;;;;7.21;31.26;101473.08;106531;1253;64869;-60
2023/12/07 05:17:06;;;;;;;18.30;6.70;;;;;;;7.43;31.51;101472.71;105167;1251;61889;-59
2023/12/07 05:19:33;;;;;;;19.50;6.30;;;;;;;7.64;31.30;101467.84;105095;1257;62801;-60
2023/12/07 05:22:01;;;;;;;17.80;7.90;;;;;;;7.68;30.91;101467.31;105332;1254;60533;-63
2023/12/07 05:24:31;;;;;;;14.00;5.30;;;;;;;7.64;30.64;101467.16;106981;1253;60841;-59
2023/12/07 05:26:59;;;;;;;17.60;7.80;;;;;;;7.53;30.66;101471.55;105372;1252;63694;-63
2023/12/07 05:29:27;;;;;;;14.10;5.30;;;;;;;7.40;30.63;101474.99;105824;1254;61356;-62
2023/12/07 05:31:54;;;;;;;16.10;5.40;;;;;;;7.29;30.71;101477.95;106332;1253;62435;-63
2023/12/07 05:34:22;;;;;;;13.00;5.40;;;;;;;7.21;30.71;101484.64;105298;1254;60524;-62
2023/12/07 05:36:49;;;;;;;18.60;6.90;;;;;;;7.09;30.68;101478.55;105142;1253;60536;-59
2023/12/07 05:39:17;;;;;;;18.40;6.50;;;;;;;7.00;30.82;101475.50;105200;1253;64932;-60
2023/12/07 05:41:46;;;;;;;17.40;6.90;;;;;;;6.91;30.86;101471.75;105338;1256;60426;-59
2023/12/07 05:44:14;;;;;;;14.70;7.60;;;;;;;6.77;30.98;101470.48;105838;1254;64249;-59
2023/12/07 05:46:44;;;;;;;16.20;5.90;;;;;;;6.69;31.11;101479.38;104928;1258;60527;-60
2023/12/07 05:49:12;;;;;;;17.90;6.30;;;;;;;6.66;31.17;101486.35;105101;1253;60552;-59
2023/12/07 05:51:40;;;;;;;16.20;8.00;;;;;;;6.60;31.30;101491.33;105150;1257;65106;-59
2023/12/07 05:54:08;;;;;;;14.30;5.80;;;;;;;6.55;31.41;101490.00;105249;1257;61373;-64
2023/12/07 05:56:35;;;;;;;14.70;5.90;;;;;;;6.48;31.39;101490.44;105104;1253;62502;-62
2023/12/07 05:59:03;;;;;;;23.40;7.50;;;;;;;6.43;31.41;101488.41;105267;1257;60553;-62
2023/12/07 06:01:31;;;;;;;14.30;5.60;;;;;;;6.51;31.53;101488.58;105255;1257;60389;-62
2023/12/07 06:03:59;;;;;;;20.70;5.00;;;;;;;6.65;31.49;101487.23;105961;1254;64965;-59
2023/12/07 06:06:27;;;;;;;19.10;6.10;;;;;;;6.75;31.44;101486.08;105068;1257;60383;-60
2023/12/07 06:08:55;;;;;;;14.90;5.30;;;;;;;6.85;31.44;101486.52;105071;1257;63668;-64
2023/12/07 06:11:22;;;;;;;18.10;6.70;;;;;;;6.90;31.16;101484.70;105150;1253;60404;-64
2023/12/07 06:13:50;;;;;;;16.80;6.50;;;;;;;6.92;31.10;101478.69;105074;1253;60479;-63
2023/12/07 06:16:19;;;;;;;15.90;5.30;;;;;;;6.96;31.11;101475.36;105410;1251;63700;-61
2023/12/07 06:18:49;;;;;;;11.70;4.70;;;;;;;7.05;31.06;101481.89;105238;1251;61934;-62
2023/12/07 06:21:19;;;;;;;15.00;5.00;;;;;;;7.10;30.77;101480.98;105493;1256;63932;-62
2023/12/07 06:23:46;;;;;;;13.00;4.90;;;;;;;7.13;30.62;101481.37;105150;1253;60586;-62
2023/12/07 06:26:14;;;;;;;13.90;5.10;;;;;;;7.12;30.60;101473.71;105276;1257;60453;-61
2023/12/07 06:28:43;;;;;;;15.90;5.90;;;;;;;7.06;30.56;101470.35;105717;1253;74114;-61
2023/12/07 06:31:12;;;;;;;17.70;6.50;;;;;;;6.99;30.58;101472.23;105825;1252;61580;-62
2023/12/07 06:33:40;;;;;;;15.90;6.40;;;;;;;6.92;30.66;101469.95;105789;1254;63717;-61
2023/12/07 06:36:09;;;;;;;17.30;6.80;;;;;;;6.85;30.71;101475.70;106637;1252;60557;-61
2023/12/07 06:38:38;;;;;;;16.40;5.70;;;;;;;6.75;30.87;101480.33;106034;1256;60601;-62
2023/12/07 06:41:06;;;;;;;22.40;7.60;;;;;;;6.72;30.94;101486.24;109310;1252;63697;-63
2023/12/07 06:43:33;;;;;;;20.40;7.00;;;;;;;6.72;30.99;101480.49;109194;1251;61325;-61
2023/12/07 06:46:01;;;;;;;15.20;5.50;;;;;;;6.69;30.96;101480.48;108454;1257;63726;-62
2023/12/07 06:48:29;;;;;;;15.20;5.50;;;;;;;6.57;30.95;101484.46;105293;1256;60546;-63
2023/12/07 06:50:57;;;;;;;16.80;6.60;;;;;;;6.50;31.14;101483.77;105563;1253;60348;-62
2023/12/07 06:53:25;;;;;;;15.80;5.90;;;;;;;6.50;31.30;101477.46;105494;1253;63854;-62
2023/12/07 06:55:52;;;;;;;13.10;6.30;;;;;;;6.54;31.29;101476.25;105487;1253;61931;-63
2023/12/07 06:58:20;;;;;;;18.10;5.80;;;;;;;6.57;31.29;101480.99;105453;1257;62436;-62
2023/12/07 07:00:49;;;;;;;16.10;5.20;;;;;;;6.54;31.38;101475.73;105405;1253;60908;-60
2023/12/07 07:03:16;;;;;;;19.50;7.10;;;;;;;6.62;31.48;101474.83;105534;1253;60589;-63
2023/12/07 07:05:49;;;;;;;17.70;4.80;;;;;;;6.74;31.40;101474.45;105654;1253;65166;-61
2023/12/07 07:08:24;;;;;;;10.40;5.20;;;;;;;6.88;31.30;101472.58;105451;1258;60555;-61
2023/12/07 07:10:52;;;;;;;14.10;4.80;;;;;;;6.98;31.24;101473.18;105463;1253;62510;-61
2023/12/07 07:13:20;;;;;;;10.70;4.60;;;;;;;7.13;31.19;101466.88;105151;1253;60545;-60
2023/12/07 07:15:48;;;;;;;14.40;5.70;;;;;;;7.27;30.95;101467.24;105703;1253;60533;-58
2023/12/07 07:18:15;;;;;;;13.20;5.80;;;;;;;7.35;30.84;101469.46;105414;1256;64960;-59
2023/12/07 07:20:44;;;;;;;15.80;6.00;;;;;;;7.41;30.64;101472.99;105510;1253;61385;-63
2023/12/07 07:23:13;;;;;;;14.80;6.40;;;;;;;7.44;30.47;101480.34;105330;1254;64195;-65
2023/12/07 07:25:42;;;;;;;15.60;5.60;;;;;;;7.42;30.33;101481.69;105906;1255;60553;-69
2023/12/07 07:28:11;;;;;;;13.40;5.10;;;;;;;7.34;30.45;101476.65;105164;1253;61270;-62
2023/12/07 07:30:39;;;;;;;14.00;6.30;;;;;;;7.33;30.55;101470.98;105845;1257;65381;-69
2023/12/07 07:33:07;;;;;;;13.00;5.00;;;;;;;7.30;30.64;101471.11;105101;1258;60475;-65
2023/12/07 07:35:35;;;;;;;20.70;7.40;;;;;;;7.24;30.75;101479.05;106009;1256;62439;-68
2023/12/07 07:38:03;;;;;;;12.40;4.80;;;;;;;7.23;30.83;101484.52;105387;1254;61762;-69
2023/12/07 07:40:30;;;;;;;11.20;4.70;;;;;;;7.22;30.89;101485.80;106693;1255;61700;-68
2023/12/07 07:42:58;;;;;;;17.70;7.50;;;;;;;7.18;30.93;101487.89;105474;1253;64865;-65
2023/12/07 07:45:56;;;;;;;18.60;6.20;;;;;;;7.15;30.95;101484.37;107312;1253;61386;-66
2023/12/07 07:48:25;;;;;;;19.00;6.40;;;;;;;7.10;30.98;101486.36;105837;1254;62763;-66
2023/12/07 07:50:54;;;;;;;15.40;6.10;;;;;;;7.00;31.00;101485.08;105504;1256;60560;-62
2023/12/07 07:53:24;;;;;;;15.00;6.70;;;;;;;6.96;31.13;101496.79;106258;1253;61120;-69
2023/12/07 07:55:52;;;;;;;16.80;6.20;;;;;;;6.95;31.18;101502.98;105220;1257;63683;-66
2023/12/07 07:58:20;;;;;;;15.20;6.10;;;;;;;6.97;31.32;101507.57;105274;1252;61356;-69
2023/12/07 08:00:49;;;;;;;20.50;6.40;;;;;;;7.05;31.46;101510.52;105811;1252;62629;-68
2023/12/07 08:03:18;;;;;;;14.30;5.80;;;;;;;7.11;31.58;101513.34;107718;1253;60351;-68
2023/12/07 08:05:49;;;;;;;13.00;5.60;;;;;;;7.17;31.46;101511.85;107376;1253;60458;-68
2023/12/07 08:08:17;;;;;;;18.00;6.60;;;;;;;7.22;31.55;101516.86;107613;1253;73615;-66
2023/12/07 08:10:46;;;;;;;18.10;6.50;;;;;;;7.25;31.54;101516.71;105374;1253;62189;-66
2023/12/07 08:13:23;;;;;;;16.20;5.50;;;;;;;7.30;31.50;101517.36;105253;1253;63826;-68
2023/12/07 08:15:53;;;;;;;14.20;5.00;;;;;;;7.33;31.36;101522.64;105782;1256;61323;-69
2023/12/07 08:18:25;;;;;;;16.10;5.00;;;;;;;7.40;31.28;101531.34;105871;1252;60528;-68
2023/12/07 08:20:56;;;;;;;17.00;7.80;;;;;;;7.54;31.22;101533.68;106238;1256;67080;-68
2023/12/07 08:23:27;;;;;;;20.10;8.40;;;;;;;7.66;31.12;101536.39;105426;1252;63265;-68
2023/12/07 08:25:57;;;;;;;18.70;7.70;;;;;;;7.77;31.08;101543.34;106735;1253;64142;-66
2023/12/07 08:28:27;;;;;;;12.70;5.60;;;;;;;7.89;31.20;101537.70;106092;1256;60550;-64
2023/12/07 08:31:00;;;;;;;18.80;8.30;;;;;;;7.95;31.16;101536.52;107123;1256;59193;-69
2023/12/07 08:33:29;;;;;;;15.40;7.00;;;;;;;7.96;31.06;101538.89;105298;1251;66091;-69
2023/12/07 08:35:58;;;;;;;19.10;7.20;;;;;;;7.98;31.06;101543.20;105586;1251;63996;-68
2023/12/07 08:38:28;;;;;;;15.70;7.00;;;;;;;7.99;31.11;101539.98;106045;1253;65546;-68
2023/12/07 08:40:55;;;;;;;17.60;6.00;;;;;;;7.94;31.04;101538.83;105189;1253;61387;-67
2023/12/07 08:43:24;;;;;;;14.30;5.40;;;;;;;7.90;31.20;101537.63;105526;1251;62231;-68
2023/12/07 08:45:52;;;;;;;14.20;6.40;;;;;;;7.86;31.18;101541.15;106503;1252;63711;-68
2023/12/07 08:48:27;;;;;;;17.00;5.80;;;;;;;7.75;31.36;101538.03;105182;1257;60464;-68
2023/12/07 08:50:55;;;;;;;16.00;6.80;;;;;;;7.72;31.55;101535.75;105421;1254;63742;-69
2023/12/07 08:53:23;;;;;;;17.90;7.10;;;;;;;7.74;31.57;101536.66;105459;1251;61395;-66
2023/12/07 08:55:53;;;;;;;15.40;7.20;;;;;;;7.74;31.78;101534.96;105569;1251;60625;-69
2023/12/07 08:58:21;;;;;;;19.70;9.10;;;;;;;7.72;31.79;101533.10;105989;1253;63818;-68
2023/12/07 09:00:48;;;;;;;12.00;4.00;;;;;;;7.79;31.81;101534.71;105311;1256;60447;-58
2023/12/07 09:03:16;;;;;;;13.60;5.90;;;;;;;7.92;31.87;101531.61;105425;1253;64224;-58
2023/12/07 09:05:45;;;;;;;22.80;10.30;;;;;;;8.02;31.86;101527.60;105729;1251;60554;-58
2023/12/07 09:08:13;;;;;;;18.00;7.10;;;;;;;8.08;31.78;101522.95;105853;1251;65009;-58
2023/12/07 09:10:41;;;;;;;14.70;6.50;;;;;;;8.06;31.86;101522.70;105740;1251;65132;-59
2023/12/07 09:13:09;;;;;;;17.40;8.00;;;;;;;7.99;31.95;101517.27;105361;1251;60460;-59
2023/12/07 09:15:37;;;;;;;14.20;7.00;;;;;;;7.95;32.07;101517.65;105337;1256;62490;-56
2023/12/07 09:18:05;;;;;;;16.30;6.40;;;;;;;7.93;32.37;101515.83;105322;1251;60410;-60
2023/12/07 09:20:33;;;;;;;23.60;7.50;;;;;;;7.95;32.35;101510.45;105688;1252;3721081;-58
2023/12/07 09:36:18;;;;;;;33.50;23.10;;;;;;;6.57;35.45;101498.40;102652;1282;605590;-57
2023/12/07 09:38:46;;;;;;;17.30;9.10;;;;;;;8.73;31.95;101492.40;101728;1266;3836652;-56
2023/12/07 09:41:14;;;;;;;18.20;8.60;;;;;;;8.77;32.03;101490.48;104361;1266;59389;-56
2023/12/07 09:43:41;;;;;;;19.50;8.60;;;;;;;8.72;32.02;101488.09;104736;1265;62094;-62
2023/12/07 09:46:09;;;;;;;21.80;8.60;;;;;;;8.60;32.17;101479.50;104277;1266;72234;-61
2023/12/07 09:48:37;;;;;;;15.90;7.30;;;;;;;8.54;32.34;101476.30;103992;1266;62531;-60
2023/12/07 09:51:06;;;;;;;18.80;5.60;;;;;;;8.56;32.38;101471.48;105026;1272;59290;-62
2023/12/07 09:53:34;;;;;;;21.60;9.40;;;;;;;8.68;32.42;101471.52;108480;1265;58323;-62
2023/12/07 09:56:02;;;;;;;18.90;7.80;;;;;;;8.78;32.47;101470.48;108417;1264;74496;-58
2023/12/07 09:58:30;;;;;;;19.60;7.30;;;;;;;8.83;32.56;101470.70;108384;1266;60313;-57
2023/12/07 10:01:09;;;;;;;18.10;6.40;;;;;;;8.88;32.62;101473.61;108413;1265;64177;-61
2023/12/07 10:03:37;;;;;;;22.30;9.60;;;;;;;8.83;32.65;101472.09;104386;1266;60560;-60
2023/12/07 10:06:05;;;;;;;17.10;7.70;;;;;;;8.83;32.73;101463.41;104221;1264;59829;-58
2023/12/07 10:08:35;;;;;;;14.80;6.40;;;;;;;8.79;32.63;101459.95;108410;1269;64190;-60
2023/12/07 10:11:07;;;;;;;16.80;8.40;;;;;;;8.69;32.61;101459.94;108394;1265;61934;-59
2023/12/07 10:13:36;;;;;;;18.20;6.30;;;;;;;8.56;32.62;101458.71;108378;1266;64199;-61
2023/12/07 10:16:08;;;;;;;16.90;7.90;;;;;;;8.50;32.65;101459.90;107086;1263;59772;-60
2023/12/07 10:18:36;;;;;;;20.10;9.60;;;;;;;8.56;32.81;101457.17;106153;1267;59823;-61
2023/12/07 10:21:09;;;;;;;18.10;8.80;;;;;;;8.55;32.91;101454.38;104781;1262;64235;-62
2023/12/07 10:23:37;;;;;;;18.20;7.90;;;;;;;8.49;32.96;101455.09;105589;1262;62213;-62
2023/12/07 10:26:10;;;;;;;19.30;6.10;;;;;;;8.48;33.09;101454.63;106729;1265;74871;-62
2023/12/07 10:28:58;;;;;;;18.40;7.40;;;;;;;8.46;33.17;101448.60;104905;1267;59644;-63
2023/12/07 10:31:30;;;;;;;15.10;6.20;;;;;;;8.37;33.35;101441.52;104415;1262;60773;-62
2023/12/07 10:33:59;;;;;;;20.80;7.60;;;;;;;8.30;33.49;101440.17;104622;1268;64448;-60
2023/12/07 10:36:28;;;;;;;15.40;8.50;;;;;;;8.29;33.61;101436.71;104726;1263;62078;-60
2023/12/07 10:38:55;;;;;;;17.70;7.50;;;;;;;8.39;33.66;101432.70;107948;1262;64321;-58
2023/12/07 10:41:24;;;;;;;20.10;7.00;;;;;;;8.54;33.63;101430.32;104657;1262;63120;-60
2023/12/07 10:44:01;;;;;;;17.60;8.20;;;;;;;8.69;33.68;101432.67;104766;1268;59619;-60
2023/12/07 10:46:29;;;;;;;18.00;6.50;;;;;;;8.86;33.63;101431.22;104679;1268;64231;-60
2023/12/07 10:49:03;;;;;;;23.10;10.30;;;;;;;8.92;33.54;101432.08;104540;1269;60570;-62
2023/12/07 10:51:41;;;;;;;16.40;7.50;;;;;;;8.98;33.30;101432.45;105251;1262;74915;-63
2023/12/07 10:54:11;;;;;;;19.30;7.20;;;;;;;8.94;33.21;101426.21;104727;1266;61877;-61
2023/12/07 10:56:43;;;;;;;18.70;8.90;;;;;;;8.87;33.34;101425.54;104492;1268;60158;-60
2023/12/07 10:59:12;;;;;;;17.50;7.40;;;;;;;8.92;33.41;101424.55;104954;1261;74596;-60
2023/12/07 11:01:56;;;;;;;18.60;9.10;;;;;;;8.96;33.38;101417.69;104696;1265;60333;-60
2023/12/07 11:04:24;;;;;;;21.20;8.20;;;;;;;8.91;33.25;101418.13;104423;1262;65932;-60
2023/12/07 11:06:53;;;;;;;11.70;5.20;;;;;;;8.85;33.15;101425.13;104548;1263;59813;-60
2023/12/07 11:09:24;;;;;;;20.50;8.80;;;;;;;8.87;33.11;101424.67;104808;1266;60816;-61
2023/12/07 11:12:05;;;;;;;21.50;9.00;;;;;;;8.98;33.28;101422.45;105531;1263;73260;-60
2023/12/07 11:14:32;;;;;;;19.40;9.60;;;;;;;9.08;33.32;101426.97;105307;1265;63775;-62
2023/12/07 11:17:00;;;;;;;18.90;7.10;;;;;;;9.14;33.43;101427.54;104234;1262;66494;-60
2023/12/07 11:19:39;;;;;;;22.40;7.60;;;;;;;9.18;33.38;101423.77;105550;1266;59625;-64
2023/12/07 11:22:09;;;;;;;17.20;8.60;;;;;;;9.20;33.25;101423.67;107020;1263;59235;-63
2023/12/07 11:24:37;;;;;;;23.10;7.40;;;;;;;9.16;33.26;101421.63;104571;1262;64497;-66
2023/12/07 11:27:04;;;;;;;18.70;7.00;;;;;;;9.09;33.25;101419.39;104468;1262;62179;-66
2023/12/07 11:29:32;;;;;;;17.30;7.50;;;;;;;9.04;33.44;101420.69;104630;1263;62611;-64
2023/12/07 11:32:04;;;;;;;18.90;7.80;;;;;;;9.00;33.37;101419.38;104753;1267;59643;-65
2023/12/07 11:34:43;;;;;;;20.10;8.20;;;;;;;9.07;33.35;101424.21;104894;1258;59829;-62
2023/12/07 11:37:17;;;;;;;20.30;9.30;;;;;;;9.08;33.33;101422.56;104751;1258;71984;-63